Time;durP1;ratioP1;P1;durP2;ratioP2;P2;SDS_P1;SDS_P2;PMS_P1;PMS_P2;Temp;Humidity;BMP_temperature;BMP_pressure;BME280_temperature;BME280_humidity;BME280_pressure;Samples;Min_cycle;Max_cycle;Signal;HPM_P1;HPM_P2
2020/12/12 00:00:23;;;;;;;36.42;18.40;;;2.20;99.90;;;;;;5108394;28;20358;-64
2020/12/12 00:02:50;;;;;;;29.55;16.40;;;2.20;99.90;;;;;;5109825;28;20050;-64
2020/12/12 00:05:16;;;;;;;32.55;17.40;;;2.20;99.90;;;;;;5110089;28;20130;-64
2020/12/12 00:07:43;;;;;;;34.35;18.67;;;2.20;99.90;;;;;;5110176;28;20046;-64
2020/12/12 00:10:10;;;;;;;35.10;18.15;;;2.20;99.90;;;;;;5109543;28;20047;-64
2020/12/12 00:12:37;;;;;;;36.42;18.17;;;2.20;99.90;;;;;;5092395;28;20051;-64
2020/12/12 00:15:06;;;;;;;30.67;16.27;;;2.20;99.90;;;;;;5109756;28;20055;-65
2020/12/12 00:17:32;;;;;;;32.08;16.90;;;2.10;99.90;;;;;;5109007;28;20039;-67
2020/12/12 00:20:00;;;;;;;33.92;17.88;;;2.10;99.90;;;;;;5110659;28;20059;-64
2020/12/12 00:22:26;;;;;;;33.72;16.77;;;2.20;99.90;;;;;;5110143;28;20036;-64
2020/12/12 00:25:09;;;;;;;;;;;2.20;99.90;;;;;;5110407;28;20052;-64
2020/12/12 00:27:36;;;;;;;30.80;15.85;;;2.20;99.90;;;;;;5112366;28;19927;-65
2020/12/12 00:30:04;;;;;;;33.08;16.95;;;2.20;99.90;;;;;;5114637;28;20040;-64
2020/12/12 00:32:30;;;;;;;33.45;17.42;;;2.20;99.90;;;;;;5113965;28;20043;-63
2020/12/12 00:34:57;;;;;;;32.20;16.80;;;2.20;99.90;;;;;;5114043;28;20058;-64
2020/12/12 00:37:23;;;;;;;35.15;17.88;;;2.20;99.90;;;;;;5118288;27;20044;-64
2020/12/12 00:39:50;;;;;;;30.38;16.63;;;2.20;99.90;;;;;;5094675;28;20078;-65
2020/12/12 00:42:17;;;;;;;33.50;18.25;;;2.20;99.90;;;;;;5113344;28;20373;-65
2020/12/12 00:44:43;;;;;;;33.53;18.55;;;2.20;99.90;;;;;;5112850;28;20047;-64
2020/12/12 00:47:14;;;;;;;36.47;18.48;;;2.20;99.90;;;;;;5113570;28;20058;-64
2020/12/12 00:49:40;;;;;;;32.28;17.42;;;2.20;99.90;;;;;;5113864;28;20049;-65
2020/12/12 00:52:07;;;;;;;35.90;18.77;;;2.20;99.90;;;;;;5114310;28;20396;-64
2020/12/12 00:54:35;;;;;;;29.02;15.77;;;2.20;99.90;;;;;;5113283;28;20043;-68
2020/12/12 00:57:01;;;;;;;32.22;17.00;;;2.20;99.90;;;;;;5112953;28;20047;-64
2020/12/12 00:59:28;;;;;;;33.28;18.38;;;2.20;99.90;;;;;;5114008;28;20051;-65
2020/12/12 01:01:54;;;;;;;34.28;16.85;;;2.30;99.90;;;;;;5112780;28;20046;-63
2020/12/12 01:04:21;;;;;;;32.95;17.65;;;2.20;99.90;;;;;;5113807;28;20378;-63
2020/12/12 01:06:48;;;;;;;32.80;16.88;;;2.20;99.90;;;;;;5112236;28;20066;-67
2020/12/12 01:09:15;;;;;;;34.60;18.02;;;2.20;99.90;;;;;;5113360;28;20052;-65
2020/12/12 01:11:41;;;;;;;34.58;17.80;;;2.20;99.90;;;;;;5112265;28;20077;-65
2020/12/12 01:14:08;;;;;;;32.25;17.83;;;2.20;99.90;;;;;;5112067;28;20492;-65
2020/12/12 01:16:34;;;;;;;33.13;19.33;;;2.20;99.90;;;;;;5113367;28;20048;-65
2020/12/12 01:19:00;;;;;;;31.83;18.00;;;2.20;99.90;;;;;;5112887;28;20706;-64
2020/12/12 01:21:27;;;;;;;37.17;18.65;;;2.20;99.90;;;;;;5112758;28;20051;-65
2020/12/12 01:23:53;;;;;;;32.13;17.83;;;2.20;99.90;;;;;;5111011;28;20044;-65
2020/12/12 01:26:20;;;;;;;37.40;19.17;;;2.20;99.90;;;;;;5111829;28;20039;-65
2020/12/12 01:28:46;;;;;;;34.80;18.98;;;2.20;99.90;;;;;;5114057;28;20051;-63
2020/12/12 01:31:13;;;;;;;36.92;18.77;;;2.20;99.90;;;;;;5112310;28;20044;-65
2020/12/12 01:33:40;;;;;;;35.22;18.33;;;2.10;99.90;;;;;;5117721;27;20043;-64
2020/12/12 01:36:07;;;;;;;34.00;18.98;;;2.10;99.90;;;;;;5112915;28;20418;-64
2020/12/12 01:38:35;;;;;;;38.20;19.35;;;2.10;99.90;;;;;;5110777;28;20051;-65
2020/12/12 01:41:02;;;;;;;35.17;18.80;;;2.10;99.90;;;;;;5112394;28;20054;-64
2020/12/12 01:43:28;;;;;;;36.92;19.23;;;2.20;99.90;;;;;;5113032;28;20043;-65
2020/12/12 01:45:55;;;;;;;38.35;19.73;;;2.20;99.90;;;;;;5112251;28;20052;-65
2020/12/12 01:48:21;;;;;;;35.70;19.15;;;2.20;99.90;;;;;;5093702;28;20047;-66
2020/12/12 01:50:49;;;;;;;37.45;18.65;;;2.10;99.90;;;;;;5112283;28;20044;-64
2020/12/12 01:53:17;;;;;;;37.90;19.67;;;2.10;99.90;;;;;;5112512;28;20134;-65
2020/12/12 01:55:48;;;;;;;37.40;19.23;;;2.10;99.90;;;;;;5112333;28;20043;-65
2020/12/12 01:58:15;;;;;;;34.38;18.75;;;2.10;99.90;;;;;;5112413;28;20043;-65
2020/12/12 02:00:42;;;;;;;38.22;19.33;;;2.10;99.90;;;;;;5109803;28;20044;-64
2020/12/12 02:03:13;;;;;;;37.05;19.80;;;2.10;99.90;;;;;;5112499;28;20077;-64
2020/12/12 02:05:45;;;;;;;38.10;19.67;;;2.10;99.90;;;;;;5107622;28;20055;-64
2020/12/12 02:08:16;;;;;;;37.70;19.63;;;2.10;99.90;;;;;;5108475;28;20051;-65
2020/12/12 02:10:48;;;;;;;36.30;19.27;;;2.20;99.90;;;;;;5081769;28;20039;-64
2020/12/12 02:13:19;;;;;;;37.42;20.10;;;2.20;99.90;;;;;;5112434;28;20055;-64
2020/12/12 02:15:46;;;;;;;38.50;19.13;;;2.20;99.90;;;;;;5109133;28;20059;-65
2020/12/12 02:18:20;;;;;;;34.90;19.98;;;2.20;99.90;;;;;;5112257;28;20051;-64
2020/12/12 02:20:57;;;;;;;37.03;20.42;;;2.20;99.90;;;;;;5111199;28;20104;-65
2020/12/12 02:23:24;;;;;;;39.78;20.40;;;2.20;99.90;;;;;;5112239;28;20498;-64
2020/12/12 02:25:55;;;;;;;39.50;20.52;;;2.20;99.90;;;;;;5111192;28;20096;-64
2020/12/12 02:28:25;;;;;;;39.70;20.67;;;2.20;99.90;;;;;;5112222;28;20047;-64
2020/12/12 02:30:52;;;;;;;38.55;20.05;;;2.20;99.90;;;;;;5110429;28;20409;-68
2020/12/12 02:33:19;;;;;;;39.05;19.88;;;2.20;99.90;;;;;;5100764;28;20051;-65
2020/12/12 02:35:45;;;;;;;39.13;20.38;;;2.30;99.90;;;;;;5111692;28;20402;-65
2020/12/12 02:38:12;;;;;;;39.13;21.23;;;2.30;99.90;;;;;;5112086;28;20510;-64
2020/12/12 02:40:39;;;;;;;41.33;21.55;;;2.30;99.90;;;;;;5110492;28;20055;-66
2020/12/12 02:43:12;;;;;;;39.28;21.23;;;2.30;99.90;;;;;;5108443;28;20048;-64
2020/12/12 02:45:43;;;;;;;42.15;22.17;;;2.30;99.90;;;;;;5111472;28;20039;-66
2020/12/12 02:48:10;;;;;;;39.60;21.20;;;2.20;99.90;;;;;;5111705;28;20059;-64
2020/12/12 02:50:36;;;;;;;39.35;21.38;;;2.30;99.90;;;;;;5110501;28;20757;-65
2020/12/12 02:53:03;;;;;;;41.95;21.00;;;2.20;99.90;;;;;;5111660;28;20047;-65
2020/12/12 02:55:29;;;;;;;40.10;22.23;;;2.20;99.90;;;;;;5110529;28;20048;-64
2020/12/12 02:57:56;;;;;;;45.70;22.85;;;2.20;99.90;;;;;;5110457;28;20070;-64
2020/12/12 03:00:25;;;;;;;43.20;21.98;;;2.20;99.90;;;;;;5093071;28;20158;-64
2020/12/12 03:02:52;;;;;;;41.13;22.20;;;2.10;99.90;;;;;;5111190;28;20539;-64
2020/12/12 03:05:19;;;;;;;45.90;22.40;;;2.10;99.90;;;;;;5111688;28;20042;-64
2020/12/12 03:07:45;;;;;;;42.40;22.33;;;2.10;99.90;;;;;;5111314;28;20051;-65
2020/12/12 03:10:12;;;;;;;46.67;23.92;;;2.20;99.90;;;;;;5110661;28;20454;-64
2020/12/12 03:12:39;;;;;;;42.92;21.73;;;2.20;99.90;;;;;;5109697;28;20115;-64
2020/12/12 03:15:10;;;;;;;44.92;22.63;;;2.20;99.90;;;;;;5110509;28;20056;-64
2020/12/12 03:17:37;;;;;;;44.58;20.88;;;2.20;99.90;;;;;;5109985;28;20043;-63
2020/12/12 03:20:06;;;;;;;45.03;23.38;;;2.20;99.90;;;;;;5111032;28;20094;-68
2020/12/12 03:22:34;;;;;;;42.40;22.83;;;2.10;99.90;;;;;;5110512;28;20135;-64
2020/12/12 03:25:03;;;;;;;44.10;22.85;;;2.10;99.90;;;;;;5111156;28;20065;-65
2020/12/12 03:27:29;;;;;;;46.30;23.98;;;2.10;99.90;;;;;;5111025;28;20039;-64
2020/12/12 03:29:56;;;;;;;46.13;23.15;;;2.10;99.90;;;;;;5111271;28;20047;-64
2020/12/12 03:32:30;;;;;;;45.53;23.25;;;2.10;99.90;;;;;;5110190;28;20081;-64
2020/12/12 03:34:57;;;;;;;46.35;23.63;;;2.10;99.90;;;;;;5111017;28;20055;-65
2020/12/12 03:37:24;;;;;;;44.22;22.55;;;2.10;99.90;;;;;;5108657;28;20044;-64
2020/12/12 03:39:50;;;;;;;45.88;23.27;;;2.00;99.90;;;;;;5109903;27;20355;-63
2020/12/12 03:42:17;;;;;;;45.45;23.17;;;2.00;99.90;;;;;;5110382;28;20044;-65
2020/12/12 03:44:44;;;;;;;42.85;22.23;;;2.00;99.90;;;;;;5111100;28;20471;-63
2020/12/12 03:47:10;;;;;;;47.10;24.25;;;2.00;99.90;;;;;;5110457;28;20044;-64
2020/12/12 03:49:37;;;;;;;47.05;23.00;;;2.00;99.90;;;;;;5092948;28;20096;-65
2020/12/12 03:52:03;;;;;;;46.50;21.75;;;2.00;99.90;;;;;;5110438;28;20054;-65
2020/12/12 03:54:30;;;;;;;42.70;22.08;;;2.00;99.90;;;;;;5109730;28;20485;-65
2020/12/12 03:56:56;;;;;;;44.35;22.55;;;2.00;99.90;;;;;;5110228;28;20505;-65
2020/12/12 03:59:23;;;;;;;40.97;21.80;;;2.00;99.90;;;;;;5109431;28;20055;-65
2020/12/12 04:01:50;;;;;;;40.70;21.65;;;2.10;99.90;;;;;;5108444;28;20059;-64
2020/12/12 04:04:16;;;;;;;43.72;22.58;;;2.00;99.90;;;;;;5099530;28;20565;-64
2020/12/12 04:06:42;;;;;;;38.83;19.83;;;2.00;99.90;;;;;;5108920;28;20043;-65
2020/12/12 04:09:09;;;;;;;43.15;20.27;;;2.00;99.90;;;;;;5110177;28;20044;-64
2020/12/12 04:11:36;;;;;;;41.47;20.10;;;2.00;99.90;;;;;;5110120;28;20056;-64
2020/12/12 04:14:03;;;;;;;42.33;20.85;;;2.00;99.90;;;;;;5110559;28;20056;-65
2020/12/12 04:16:29;;;;;;;43.83;21.05;;;2.00;99.90;;;;;;5110377;28;20044;-64
2020/12/12 04:18:57;;;;;;;38.53;20.00;;;2.00;99.90;;;;;;5109597;28;20424;-65
2020/12/12 04:21:24;;;;;;;40.53;20.92;;;2.00;99.90;;;;;;5099429;28;20055;-65
2020/12/12 04:23:51;;;;;;;42.40;20.85;;;2.00;99.90;;;;;;5110442;28;20040;-64
2020/12/12 04:26:17;;;;;;;37.85;20.50;;;2.00;99.90;;;;;;5108607;28;20056;-64
2020/12/12 04:28:44;;;;;;;37.25;19.63;;;2.00;99.90;;;;;;5110125;28;20044;-64
2020/12/12 04:31:11;;;;;;;40.13;20.17;;;2.00;99.90;;;;;;5109040;28;20051;-64
2020/12/12 04:33:38;;;;;;;41.05;20.25;;;2.00;99.90;;;;;;5108864;28;20119;-65
2020/12/12 04:36:07;;;;;;;40.33;20.13;;;2.00;99.90;;;;;;5109482;28;20134;-65
2020/12/12 04:38:36;;;;;;;40.10;19.95;;;2.00;99.90;;;;;;5109677;28;20052;-68
2020/12/12 04:41:10;;;;;;;38.85;19.75;;;2.00;99.90;;;;;;5107966;28;20055;-65
2020/12/12 04:43:40;;;;;;;39.22;19.08;;;2.00;99.90;;;;;;5109926;28;20039;-65
2020/12/12 04:46:07;;;;;;;38.40;19.85;;;2.00;99.90;;;;;;5108695;28;20048;-65
2020/12/12 04:48:34;;;;;;;37.67;19.95;;;2.00;99.90;;;;;;5092363;28;20040;-65
2020/12/12 04:51:03;;;;;;;38.42;21.08;;;2.10;99.90;;;;;;5109856;28;20456;-64
2020/12/12 04:53:30;;;;;;;39.25;20.10;;;2.10;99.90;;;;;;5091716;28;20504;-64
2020/12/12 04:55:57;;;;;;;34.65;18.15;;;2.00;99.90;;;;;;5110007;28;20051;-64
2020/12/12 04:58:28;;;;;;;36.20;18.65;;;2.00;99.90;;;;;;5109643;28;20050;-64
2020/12/12 05:00:57;;;;;;;37.63;19.13;;;2.00;99.90;;;;;;5091370;28;20059;-68
2020/12/12 05:03:25;;;;;;;36.75;18.92;;;2.10;99.90;;;;;;5104407;28;20040;-64
2020/12/12 05:05:52;;;;;;;34.80;18.42;;;2.10;99.90;;;;;;5110022;28;20541;-65
2020/12/12 05:08:19;;;;;;;35.15;19.35;;;2.10;99.90;;;;;;5108405;28;20047;-65
2020/12/12 05:10:50;;;;;;;37.40;18.88;;;2.10;99.90;;;;;;5108965;28;20047;-64
2020/12/12 05:13:30;;;;;;;34.88;18.38;;;2.10;99.90;;;;;;5110647;28;20047;-65
2020/12/12 05:15:58;;;;;;;39.45;19.85;;;2.10;99.90;;;;;;5100545;28;20062;-65
2020/12/12 05:18:25;;;;;;;36.65;19.45;;;2.10;99.90;;;;;;5112809;28;20048;-65
2020/12/12 05:20:52;;;;;;;36.33;18.67;;;2.10;99.90;;;;;;5113028;28;20055;-65
2020/12/12 05:23:21;;;;;;;35.35;19.00;;;2.10;99.90;;;;;;5111604;28;20406;-65
2020/12/12 05:25:48;;;;;;;35.38;18.35;;;2.20;99.90;;;;;;5112783;28;20047;-64
2020/12/12 05:28:17;;;;;;;36.65;19.02;;;2.20;99.90;;;;;;5112690;28;20062;-64
2020/12/12 05:30:46;;;;;;;36.30;20.33;;;2.20;99.90;;;;;;5111526;28;20039;-64
2020/12/12 05:33:18;;;;;;;35.63;19.08;;;2.20;99.90;;;;;;5113027;28;20048;-65
2020/12/12 05:35:46;;;;;;;36.88;19.52;;;2.20;99.90;;;;;;5111503;28;20498;-65
2020/12/12 05:38:13;;;;;;;38.58;19.10;;;2.20;99.90;;;;;;5113221;28;20047;-64
2020/12/12 05:40:42;;;;;;;36.17;19.02;;;2.20;99.90;;;;;;5111848;28;20056;-64
2020/12/12 05:43:13;;;;;;;35.25;17.83;;;2.20;99.90;;;;;;5113411;28;20432;-64
2020/12/12 05:45:40;;;;;;;35.25;18.30;;;2.20;99.90;;;;;;5111901;28;20040;-65
2020/12/12 05:48:08;;;;;;;35.03;18.80;;;2.30;99.90;;;;;;5093282;28;20620;-64
2020/12/12 05:50:35;;;;;;;34.28;18.05;;;2.30;99.90;;;;;;5112782;28;20050;-68
2020/12/12 05:53:04;;;;;;;36.83;19.30;;;2.30;99.90;;;;;;5111036;28;20383;-65
2020/12/12 05:55:31;;;;;;;34.30;18.45;;;2.30;99.90;;;;;;5112856;28;20048;-63
2020/12/12 05:57:58;;;;;;;39.58;19.88;;;2.30;99.90;;;;;;5111375;28;20055;-65
2020/12/12 06:00:27;;;;;;;34.72;17.95;;;2.30;99.90;;;;;;5112102;28;20043;-64
2020/12/12 06:02:56;;;;;;;36.00;19.02;;;2.30;99.90;;;;;;5111674;28;20048;-65
2020/12/12 06:05:33;;;;;;;37.72;19.50;;;2.40;99.90;;;;;;5111670;28;20118;-64
2020/12/12 06:08:02;;;;;;;36.95;18.50;;;2.40;99.90;;;;;;5110990;28;20044;-65
2020/12/12 06:10:31;;;;;;;36.30;19.10;;;2.40;99.90;;;;;;5111891;28;20469;-64
2020/12/12 06:13:05;;;;;;;35.67;18.63;;;2.40;99.90;;;;;;5112411;28;20051;-63
2020/12/12 06:15:40;;;;;;;35.25;19.75;;;2.50;99.90;;;;;;5112223;28;20040;-65
2020/12/12 06:18:26;;;;;;;39.95;20.33;;;2.50;99.90;;;;;;5111129;28;20131;-63
2020/12/12 06:20:54;;;;;;;36.53;18.70;;;2.50;99.90;;;;;;5112101;28;20388;-63
2020/12/12 06:23:20;;;;;;;37.75;19.70;;;2.50;99.90;;;;;;5105732;28;20043;-64
2020/12/12 06:25:47;;;;;;;37.97;19.92;;;2.50;99.90;;;;;;5111111;28;20536;-63
2020/12/12 06:28:27;;;;;;;36.55;18.58;;;2.40;99.90;;;;;;5108798;28;20470;-64
2020/12/12 06:30:56;;;;;;;36.35;18.67;;;2.40;99.90;;;;;;5110022;28;20059;-62
2020/12/12 06:33:23;;;;;;;38.15;19.30;;;2.40;99.90;;;;;;5111178;28;20043;-64
2020/12/12 06:35:51;;;;;;;38.60;18.77;;;2.40;99.90;;;;;;5093600;28;20082;-64
2020/12/12 06:38:22;;;;;;;37.03;19.52;;;2.40;99.90;;;;;;5112165;28;20066;-63
2020/12/12 06:40:51;;;;;;;36.77;19.43;;;2.40;99.90;;;;;;5109562;28;20053;-64
2020/12/12 06:43:36;;;;;;;38.83;19.70;;;2.40;99.90;;;;;;5111399;28;20054;-64
2020/12/12 06:46:06;;;;;;;37.85;19.10;;;2.30;99.90;;;;;;5109646;28;20470;-64
2020/12/12 06:48:34;;;;;;;36.42;18.55;;;2.30;99.90;;;;;;5111994;28;20117;-64
2020/12/12 06:51:02;;;;;;;38.50;20.23;;;2.30;99.90;;;;;;5110521;28;20050;-66
2020/12/12 06:53:30;;;;;;;36.67;19.77;;;2.30;99.90;;;;;;5111770;28;20640;-63
2020/12/12 06:56:07;;;;;;;35.72;19.33;;;2.30;99.90;;;;;;5110322;28;20070;-65
2020/12/12 06:58:34;;;;;;;40.20;20.65;;;2.30;99.90;;;;;;5110236;28;20047;-64
2020/12/12 07:01:32;;;;;;;39.25;19.90;;;2.30;99.90;;;;;;5091937;28;20166;-63
2020/12/12 07:04:05;;;;;;;36.72;19.27;;;2.30;99.90;;;;;;5097935;28;20524;-66
2020/12/12 07:06:34;;;;;;;43.00;18.73;;;2.30;99.90;;;;;;5110629;28;20134;-65
2020/12/12 07:09:09;;;;;;;38.33;19.73;;;2.30;99.90;;;;;;5111136;28;20082;-65
2020/12/12 07:11:36;;;;;;;43.00;20.15;;;2.20;99.90;;;;;;5111252;28;20047;-64
2020/12/12 07:14:03;;;;;;;39.20;19.92;;;2.20;99.90;;;;;;5111545;28;20508;-64
2020/12/12 07:16:30;;;;;;;35.42;18.10;;;2.20;99.90;;;;;;5111617;28;20447;-64
2020/12/12 07:18:56;;;;;;;40.10;19.65;;;2.20;99.90;;;;;;5111165;28;20459;-64
2020/12/12 07:21:23;;;;;;;39.80;19.77;;;2.20;99.90;;;;;;5108689;28;20362;-64
2020/12/12 07:23:50;;;;;;;40.30;20.10;;;2.30;99.90;;;;;;5111091;28;20055;-64
2020/12/12 07:26:17;;;;;;;40.08;20.05;;;2.30;99.90;;;;;;5110150;28;20059;-64
2020/12/12 07:28:43;;;;;;;38.72;19.88;;;2.40;99.90;;;;;;5108161;28;20055;-65
2020/12/12 07:31:10;;;;;;;38.80;19.40;;;2.40;99.90;;;;;;5110487;28;20044;-64
2020/12/12 07:33:37;;;;;;;39.10;20.20;;;2.40;99.90;;;;;;5110186;28;20485;-64
2020/12/12 07:36:05;;;;;;;41.58;20.83;;;2.40;99.90;;;;;;5109434;28;20509;-65
2020/12/12 07:38:38;;;;;;;38.97;19.90;;;2.50;99.90;;;;;;5110793;28;20048;-64
2020/12/12 07:41:13;;;;;;;40.42;20.23;;;2.50;99.90;;;;;;5109846;28;20057;-65
2020/12/12 07:43:55;;;;;;;38.65;19.60;;;2.50;99.90;;;;;;5110484;28;20125;-65
2020/12/12 07:46:37;;;;;;;37.08;18.48;;;2.60;99.90;;;;;;5109658;28;20055;-66
2020/12/12 07:49:04;;;;;;;40.40;19.30;;;2.60;99.90;;;;;;5081980;28;20108;-65
2020/12/12 07:51:31;;;;;;;37.90;19.20;;;2.70;99.90;;;;;;5109780;28;20051;-65
2020/12/12 07:53:58;;;;;;;38.67;19.05;;;2.70;99.90;;;;;;5110764;28;20516;-66
2020/12/12 07:56:25;;;;;;;35.15;19.15;;;2.80;99.90;;;;;;5110420;28;20709;-65
2020/12/12 07:59:08;;;;;;;35.55;18.48;;;2.80;99.90;;;;;;5109451;28;20047;-65
2020/12/12 08:01:35;;;;;;;37.08;19.02;;;2.80;99.90;;;;;;5090642;28;20386;-65
2020/12/12 08:04:01;;;;;;;36.63;18.05;;;2.80;99.90;;;;;;5110362;28;20155;-65
2020/12/12 08:06:28;;;;;;;38.58;19.85;;;2.80;99.90;;;;;;5109551;28;20046;-65
2020/12/12 08:08:56;;;;;;;37.55;18.60;;;2.80;99.90;;;;;;5110080;28;20484;-65
2020/12/12 08:11:23;;;;;;;37.78;19.52;;;2.90;99.90;;;;;;5091216;28;20036;-65
2020/12/12 08:13:49;;;;;;;37.70;19.10;;;2.90;99.90;;;;;;5090374;28;20047;-64
2020/12/12 08:18:44;;;;;;;38.08;19.80;;;2.90;99.90;;;;;;5109456;28;20135;-65
2020/12/12 08:21:15;;;;;;;38.80;20.13;;;2.90;99.90;;;;;;5109041;28;20051;-65
2020/12/12 08:23:43;;;;;;;39.40;19.45;;;2.90;99.90;;;;;;5109650;28;20040;-64
2020/12/12 08:26:18;;;;;;;35.55;18.48;;;2.90;99.90;;;;;;5109444;28;20066;-65
2020/12/12 08:28:45;;;;;;;39.67;19.10;;;3.00;99.90;;;;;;5108676;28;20035;-65
2020/12/12 08:31:16;;;;;;;34.95;18.17;;;3.00;99.90;;;;;;5109243;28;20052;-65
2020/12/12 08:33:45;;;;;;;35.50;17.77;;;3.00;99.90;;;;;;5109930;28;20048;-64
2020/12/12 08:36:19;;;;;;;39.70;19.05;;;3.00;99.90;;;;;;5109097;28;20056;-64
2020/12/12 08:38:56;;;;;;;42.30;21.58;;;3.00;99.90;;;;;;5109002;28;20409;-64
2020/12/12 08:41:33;;;;;;;47.88;24.23;;;3.10;99.90;;;;;;5109079;28;20055;-64
2020/12/12 08:44:01;;;;;;;39.58;20.35;;;3.10;99.90;;;;;;5108992;28;20058;-64
2020/12/12 08:46:28;;;;;;;37.15;20.38;;;3.10;99.90;;;;;;5107642;28;20055;-64
2020/12/12 08:48:55;;;;;;;36.20;19.35;;;3.20;99.90;;;;;;5113821;28;20123;-65
2020/12/12 08:51:30;;;;;;;38.05;19.33;;;3.30;99.90;;;;;;5113203;28;20417;-63
2020/12/12 08:53:58;;;;;;;42.42;21.63;;;3.30;99.90;;;;;;5111654;28;20056;-65
2020/12/12 08:56:28;;;;;;;37.50;19.75;;;3.40;99.90;;;;;;5112874;28;20054;-65
2020/12/12 08:59:05;;;;;;;37.05;19.90;;;3.50;99.90;;;;;;5113633;28;20043;-63
2020/12/12 09:01:42;;;;;;;36.22;18.95;;;3.50;99.90;;;;;;5112935;28;20048;-65
2020/12/12 09:04:13;;;;;;;34.80;19.13;;;3.60;99.90;;;;;;5096108;28;20059;-64
2020/12/12 09:06:43;;;;;;;36.63;19.13;;;3.60;99.90;;;;;;5112086;28;20055;-64
2020/12/12 09:09:17;;;;;;;38.78;18.65;;;3.70;99.90;;;;;;5113510;28;20052;-63
2020/12/12 09:12:05;;;;;;;37.90;19.50;;;3.80;99.90;;;;;;5112641;28;20047;-64
2020/12/12 09:14:34;;;;;;;36.10;18.92;;;4.00;99.90;;;;;;5113462;28;20048;-64
2020/12/12 09:17:02;;;;;;;32.05;17.08;;;4.20;99.90;;;;;;5112996;28;20040;-63
2020/12/12 09:19:30;;;;;;;35.70;19.60;;;4.40;99.90;;;;;;5095098;28;20104;-67
2020/12/12 09:22:00;;;;;;;43.17;23.33;;;4.50;99.90;;;;;;5110771;28;20117;-68
2020/12/12 09:24:27;;;;;;;42.80;21.50;;;4.60;99.90;;;;;;5101114;28;20047;-67
2020/12/12 09:26:56;;;;;;;39.75;20.15;;;4.70;99.90;;;;;;5112671;28;20051;-67
2020/12/12 09:29:23;;;;;;;40.15;20.67;;;4.80;99.90;;;;;;5112038;28;20501;-68
2020/12/12 09:31:51;;;;;;;35.50;19.33;;;4.90;99.90;;;;;;5111093;28;20048;-67
2020/12/12 09:34:18;;;;;;;33.85;19.15;;;5.00;99.90;;;;;;5111533;28;20118;-68
2020/12/12 09:36:47;;;;;;;31.33;18.38;;;5.00;99.90;;;;;;5110635;28;20040;-67
2020/12/12 09:39:13;;;;;;;34.33;19.00;;;5.20;99.90;;;;;;5111274;28;20043;-68
2020/12/12 09:41:40;;;;;;;35.80;19.00;;;5.30;99.90;;;;;;5110955;28;20048;-68
2020/12/12 09:44:07;;;;;;;32.63;18.00;;;5.40;99.90;;;;;;5112890;28;20118;-68
2020/12/12 09:46:34;;;;;;;32.88;18.50;;;5.50;99.90;;;;;;5112041;28;20139;-68
2020/12/12 09:49:00;;;;;;;33.25;18.80;;;5.50;99.90;;;;;;5112943;28;20406;-68
2020/12/12 09:51:27;;;;;;;31.45;18.63;;;5.60;99.90;;;;;;5093943;28;20514;-68
2020/12/12 09:53:54;;;;;;;35.17;20.55;;;5.50;99.90;;;;;;5113175;28;20537;-68
2020/12/12 09:56:21;;;;;;;42.85;23.63;;;5.50;99.90;;;;;;5111483;28;20455;-68
2020/12/12 09:58:47;;;;;;;41.03;22.83;;;5.40;99.90;;;;;;5111639;28;20055;-68
2020/12/12 10:01:14;;;;;;;31.55;17.80;;;5.20;99.90;;;;;;5111981;28;20071;-68
2020/12/12 10:03:41;;;;;;;36.60;20.52;;;5.20;99.90;;;;;;5111503;28;20046;-68
2020/12/12 10:06:09;;;;;;;33.78;18.98;;;5.10;99.90;;;;;;5111561;28;20375;-68
2020/12/12 10:08:37;;;;;;;33.53;19.08;;;5.10;99.90;;;;;;5111138;28;20047;-68
2020/12/12 10:11:07;;;;;;;36.72;19.50;;;5.00;99.90;;;;;;5110594;28;20051;-66
2020/12/12 10:13:34;;;;;;;34.90;19.00;;;5.00;99.90;;;;;;5111921;28;20474;-68
2020/12/12 10:16:02;;;;;;;33.60;20.45;;;5.10;99.90;;;;;;5109692;28;20078;-66
2020/12/12 10:18:28;;;;;;;35.72;19.55;;;5.10;99.90;;;;;;5112796;28;20051;-67
2020/12/12 10:20:55;;;;;;;36.83;20.27;;;5.10;99.90;;;;;;5108262;28;20059;-66
2020/12/12 10:23:21;;;;;;;39.53;20.63;;;5.20;99.90;;;;;;5112379;28;20131;-67
2020/12/12 10:25:48;;;;;;;35.95;19.10;;;5.20;99.90;;;;;;5093202;28;20054;-66
2020/12/12 10:28:14;;;;;;;42.08;21.80;;;5.20;99.90;;;;;;5111014;28;20567;-68
2020/12/12 10:30:41;;;;;;;37.95;20.77;;;5.30;99.90;;;;;;5108868;28;20044;-66
2020/12/12 10:33:07;;;;;;;37.10;20.08;;;5.30;99.90;;;;;;5111690;28;20058;-66
2020/12/12 10:35:34;;;;;;;35.05;19.50;;;5.40;99.90;;;;;;5111939;28;20040;-69
2020/12/12 10:38:02;;;;;;;35.83;20.50;;;5.30;99.90;;;;;;5111332;28;20062;-67
2020/12/12 10:40:44;;;;;;;35.38;19.70;;;5.30;99.90;;;;;;5109493;28;20079;-67
2020/12/12 10:43:11;;;;;;;36.03;19.95;;;5.30;99.90;;;;;;5111661;28;20055;-67
2020/12/12 10:45:38;;;;;;;34.38;19.42;;;5.30;99.90;;;;;;5111073;28;20040;-67
2020/12/12 10:48:05;;;;;;;32.03;18.42;;;5.40;99.90;;;;;;5112285;28;20059;-67
2020/12/12 10:50:32;;;;;;;33.03;20.35;;;5.40;99.90;;;;;;5109287;28;20044;-67
2020/12/12 10:52:58;;;;;;;35.83;19.88;;;5.30;99.90;;;;;;5110716;28;20063;-66
2020/12/12 10:55:25;;;;;;;37.38;19.67;;;5.30;99.90;;;;;;5109289;28;20043;-66
2020/12/12 10:57:51;;;;;;;34.35;19.00;;;5.30;99.90;;;;;;5110147;28;20052;-66
2020/12/12 11:00:24;;;;;;;37.72;19.98;;;5.20;99.90;;;;;;5110788;28;20055;-68
2020/12/12 11:02:52;;;;;;;32.63;18.65;;;5.20;99.90;;;;;;5109847;28;20043;-67
2020/12/12 11:05:20;;;;;;;30.67;18.40;;;5.20;99.90;;;;;;5111597;28;20042;-67
2020/12/12 11:07:51;;;;;;;;;;;5.20;99.90;;;;;;5109780;28;20044;-66
2020/12/12 11:10:18;;;;;;;48.47;25.50;;;5.20;99.90;;;;;;5108710;28;19946;-67
2020/12/12 11:12:45;;;;;;;36.60;21.60;;;5.20;99.90;;;;;;5109370;28;20047;-67
2020/12/12 11:15:16;;;;;;;31.73;18.88;;;5.30;99.90;;;;;;5110118;28;20039;-67
2020/12/12 11:17:44;;;;;;;34.75;19.63;;;5.30;99.90;;;;;;5110818;28;20482;-67
2020/12/12 11:20:12;;;;;;;34.30;18.80;;;5.30;99.90;;;;;;5091736;28;20044;-67
2020/12/12 11:22:38;;;;;;;35.10;19.50;;;5.40;99.90;;;;;;5109947;28;20048;-68
2020/12/12 11:25:06;;;;;;;35.20;19.67;;;5.30;99.90;;;;;;5109436;28;20455;-67
2020/12/12 11:27:33;;;;;;;37.08;19.70;;;5.30;99.90;;;;;;5111111;28;20123;-67
2020/12/12 11:30:01;;;;;;;35.17;19.23;;;5.40;99.90;;;;;;5109891;28;20044;-67
2020/12/12 11:32:27;;;;;;;33.33;19.50;;;5.30;99.90;;;;;;5102094;28;20056;-68
2020/12/12 11:35:10;;;;;;;32.58;19.40;;;5.40;99.90;;;;;;5109010;28;20574;-67
2020/12/12 11:40:20;;;;;;;33.78;19.17;;;5.40;99.90;;;;;;5109897;28;20051;-68
2020/12/12 11:45:41;;;;;;;32.13;18.70;;;5.40;99.90;;;;;;5110366;28;20047;-68
2020/12/12 11:48:08;;;;;;;32.78;19.25;;;5.50;99.90;;;;;;5108711;28;20047;-68
2020/12/12 11:50:34;;;;;;;36.03;19.83;;;5.50;99.90;;;;;;5109924;28;20043;-68
2020/12/12 11:53:01;;;;;;;30.58;18.15;;;5.50;99.90;;;;;;5109674;28;20061;-67
2020/12/12 11:55:27;;;;;;;33.70;20.42;;;5.40;99.90;;;;;;5110998;28;20063;-66
2020/12/12 11:57:54;;;;;;;38.10;20.65;;;5.30;99.90;;;;;;5108404;28;20050;-67
2020/12/12 12:00:22;;;;;;;35.35;19.27;;;5.30;99.90;;;;;;5110001;28;20047;-66
2020/12/12 12:02:48;;;;;;;31.52;18.85;;;5.20;99.90;;;;;;5109501;28;20047;-69
2020/12/12 12:05:15;;;;;;;36.17;20.40;;;5.20;99.90;;;;;;5110599;28;20050;-67
2020/12/12 12:07:45;;;;;;;37.28;20.92;;;5.20;99.90;;;;;;5108766;28;20082;-67
2020/12/12 12:12:46;;;;;;;34.35;19.50;;;5.20;99.90;;;;;;5109872;28;20067;-67
2020/12/12 12:15:13;;;;;;;31.52;18.00;;;5.20;99.90;;;;;;5109063;28;20051;-67
2020/12/12 12:17:45;;;;;;;34.83;19.83;;;5.20;99.90;;;;;;5108418;28;20456;-69
2020/12/12 12:20:12;;;;;;;35.83;19.00;;;5.10;99.90;;;;;;5109483;28;20062;-73
2020/12/12 12:22:39;;;;;;;35.58;19.92;;;5.10;99.90;;;;;;5092257;28;20059;-73
2020/12/12 12:25:11;;;;;;;29.70;17.88;;;5.20;99.90;;;;;;5095561;28;20035;-73
2020/12/12 12:27:41;;;;;;;37.78;21.05;;;5.20;99.90;;;;;;5093840;28;20057;-73
2020/12/12 12:30:07;;;;;;;33.95;19.25;;;5.30;99.90;;;;;;5113324;28;20087;-73
2020/12/12 12:32:34;;;;;;;34.95;18.95;;;5.20;99.90;;;;;;5112510;28;20048;-74
2020/12/12 12:35:01;;;;;;;36.88;19.50;;;5.20;99.90;;;;;;5113399;28;20083;-74
2020/12/12 12:37:30;;;;;;;39.50;23.02;;;5.20;99.90;;;;;;5113678;28;20424;-75
2020/12/12 12:39:57;;;;;;;44.83;24.08;;;5.30;99.90;;;;;;5099904;28;20563;-75
2020/12/12 12:42:23;;;;;;;39.22;20.30;;;5.30;99.90;;;;;;5095636;28;20147;-74
2020/12/12 12:44:53;;;;;;;37.13;20.60;;;5.40;99.90;;;;;;5114214;28;20057;-75
2020/12/12 12:47:20;;;;;;;39.00;21.10;;;5.50;99.90;;;;;;5112913;28;20483;-75
2020/12/12 12:49:47;;;;;;;33.65;18.73;;;5.50;99.90;;;;;;5114114;28;20158;-76
2020/12/12 12:52:14;;;;;;;36.10;19.50;;;5.50;99.90;;;;;;5112508;28;20048;-74
2020/12/12 12:54:40;;;;;;;35.63;20.80;;;5.50;99.90;;;;;;5093207;28;20043;-73